createdAt,value
2019-03-20T05:01:17.120Z,-1.20
2019-03-20T05:03:52.272Z,-1.20
2019-03-20T05:06:27.373Z,-1.20
2019-03-20T05:09:02.247Z,-1.20
2019-03-20T05:11:38.455Z,-1.20
2019-03-20T05:14:07.243Z,-1.20
2019-03-20T06:00:20.851Z,-1.20
2019-03-20T06:02:56.367Z,-1.20
2019-03-20T06:05:31.511Z,-1.20
2019-03-20T06:07:54.060Z,-1.10
2019-03-20T07:01:15.316Z,0.80
2019-03-20T07:03:44.934Z,1.20
2019-03-20T07:06:24.537Z,1.50
2019-03-20T07:08:51.329Z,1.80
2019-03-20T07:11:27.092Z,2.20
2019-03-20T07:14:04.510Z,2.50
2019-03-20T08:00:29.873Z,7.50
2019-03-20T08:02:52.420Z,7.80
2019-03-20T08:05:14.956Z,8.10
2019-03-20T08:07:38.576Z,8.30
2019-03-20T08:10:01.032Z,8.40
2019-03-20T08:12:23.534Z,8.60
2019-03-20T08:14:45.985Z,8.70
2019-03-20T09:02:36.450Z,12.90
2019-03-20T09:04:58.918Z,13.00
2019-03-20T09:07:22.269Z,13.00
2019-03-20T09:09:45.924Z,13.30
2019-03-20T09:12:08.471Z,13.60
2019-03-20T09:14:31.032Z,13.80
2019-03-20T09:57:21.166Z,16.50
2019-03-20T09:59:46.085Z,16.30
2019-03-20T10:02:08.882Z,16.40
2019-03-20T10:04:31.609Z,16.70
2019-03-20T10:06:54.224Z,17.00
2019-03-20T10:09:16.962Z,17.10
2019-03-20T10:11:39.768Z,17.00
2019-03-20T10:14:04.024Z,17.30
2019-03-20T11:01:01.983Z,27.30
2019-03-20T11:03:37.154Z,28.60
2019-03-20T11:06:12.283Z,29.10
2019-03-20T11:11:38.249Z,29.20
2019-03-20T11:14:13.164Z,29.10
2019-03-20T11:45:42.572Z,27.60
2019-03-20T11:48:05.162Z,27.40
2019-03-20T11:50:30.188Z,27.30
2019-03-20T11:52:52.752Z,28.00
2019-03-20T11:55:15.260Z,28.70
2019-03-20T11:57:37.827Z,30.00
2019-03-20T12:00:01.514Z,31.00
2019-03-20T12:02:28.421Z,32.30
2019-03-20T12:04:50.032Z,33.60
2019-03-20T12:07:12.691Z,33.80
2019-03-20T12:09:40.912Z,33.90
2019-03-20T12:11:59.675Z,34.00
2019-03-20T12:14:22.325Z,33.00
2019-03-20T16:40:22.298Z,17.10
2019-03-20T16:42:57.475Z,16.70
2019-03-20T17:00:09.263Z,14.10
2019-03-20T17:02:44.399Z,14.00
2019-03-20T17:05:19.444Z,13.70
2019-03-20T17:07:54.556Z,13.60
2019-03-20T17:13:19.724Z,13.20
2019-03-20T17:15:54.949Z,13.10
2019-03-20T17:18:30.045Z,12.90
2019-03-20T18:16:12.985Z,10.00
2019-03-20T18:18:48.288Z,9.80
2019-03-20T18:21:24.561Z,9.70
2019-03-20T18:26:45.326Z,9.30
2019-03-20T18:29:20.368Z,9.20
2019-03-20T18:31:56.592Z,9.10
2019-03-20T18:34:31.421Z,8.90
2019-03-20T18:37:06.267Z,8.80
2019-03-20T18:39:41.435Z,8.70
2019-03-20T19:11:31.448Z,7.40
2019-03-20T19:14:11.068Z,7.30
2019-03-20T20:00:48.864Z,5.60
2019-03-20T20:03:11.356Z,5.50
2019-03-20T20:05:33.995Z,5.50
2019-03-20T20:07:56.621Z,5.50
2019-03-20T20:10:35.288Z,5.50
2019-03-20T20:13:10.788Z,5.50
2019-03-20T21:01:33.263Z,4.30
2019-03-20T21:03:56.562Z,4.20
2019-03-20T21:06:19.254Z,4.10
2019-03-20T21:08:53.867Z,4.10
2019-03-20T21:11:28.959Z,4.00
2019-03-20T21:14:04.147Z,4.00
